Time;durP1;ratioP1;P1;durP2;ratioP2;P2;SDS_P1;SDS_P2;PMS_P1;PMS_P2;Temp;Humidity;BMP_temperature;BMP_pressure;BME280_temperature;BME280_humidity;BME280_pressure;Samples;Min_cycle;Max_cycle;Signal;HPM_P1;HPM_P2
2022/11/17 00:01:42;;;;;;;6.35;4.07;;;;;;;8.88;100.00;98371.41;4990230;28;20030;-60
2022/11/17 00:04:07;;;;;;;14.35;4.70;;;;;;;9.15;100.00;98415.19;4988628;28;20038;-61
2022/11/17 00:06:32;;;;;;;8.18;4.43;;;;;;;9.02;100.00;98381.00;4988833;28;20041;-59
2022/11/17 00:08:58;;;;;;;12.32;3.88;;;;;;;9.16;100.00;98411.63;4988760;28;20053;-60
2022/11/17 00:11:23;;;;;;;6.85;3.85;;;;;;;8.86;100.00;98333.13;4989783;28;20049;-59
2022/11/17 00:16:32;;;;;;;6.32;3.47;;;;;;;9.21;100.00;98381.50;4990067;28;20045;-61
2022/11/17 00:21:42;;;;;;;7.85;3.97;;;;;;;9.22;100.00;98377.97;4989689;28;20577;-61
2022/11/17 00:24:07;;;;;;;10.57;4.00;;;;;;;9.27;100.00;98364.50;4989426;28;20141;-62
2022/11/17 00:26:34;;;;;;;11.63;4.93;;;;;;;9.17;100.00;98350.31;4989843;28;20098;-63
2022/11/17 00:29:01;;;;;;;8.30;5.10;;;;;;;8.96;100.00;98308.78;4990133;28;20066;-62
2022/11/17 00:34:17;;;;;;;10.15;5.28;;;;;;;8.93;100.00;98287.19;4989834;28;20402;-61
2022/11/17 00:36:47;;;;;;;8.50;5.47;;;;;;;9.14;100.00;98316.38;4988477;28;20026;-62
2022/11/17 00:39:13;;;;;;;10.07;5.88;;;;;;;9.24;100.00;98333.22;4990049;28;20054;-60
2022/11/17 00:41:39;;;;;;;13.00;6.53;;;;;;;9.32;100.00;98337.00;4989968;28;20039;-64
2022/11/17 00:44:05;;;;;;;8.60;6.45;;;;;;;9.32;100.00;98331.75;4990001;28;20104;-64
2022/11/17 00:46:31;;;;;;;7.55;6.82;;;;;;;9.04;100.00;98288.16;4989611;28;20042;-63
2022/11/17 00:48:56;;;;;;;13.40;6.45;;;;;;;9.28;100.00;98326.84;4989662;28;20130;-63
2022/11/17 00:51:21;;;;;;;11.23;6.50;;;;;;;9.25;100.00;98309.47;4989236;28;20078;-59
2022/11/17 00:53:47;;;;;;;13.05;6.57;;;;;;;9.38;100.00;98312.13;4989643;28;20113;-61
2022/11/17 00:56:12;;;;;;;14.73;7.10;;;;;;;9.01;100.00;98235.03;4989544;28;20181;-62
2022/11/17 00:58:38;;;;;;;12.95;7.88;;;;;;;9.43;100.00;98287.25;4989564;28;20038;-61
2022/11/17 01:01:03;;;;;;;11.75;6.93;;;;;;;9.45;100.00;98269.63;4988067;28;20046;-63
2022/11/17 01:03:29;;;;;;;10.60;6.85;;;;;;;9.42;100.00;98267.22;4988790;28;20118;-61
2022/11/17 01:05:54;;;;;;;8.63;6.45;;;;;;;9.33;100.00;98252.06;4988174;28;20077;-60
2022/11/17 01:08:19;;;;;;;6.90;6.13;;;;;;;9.19;100.00;98225.94;4989467;28;20098;-60
2022/11/17 01:10:44;;;;;;;8.45;6.53;;;;;;;9.40;100.00;98257.72;4989292;28;20034;-60
2022/11/17 01:13:10;;;;;;;10.70;6.13;;;;;;;9.54;100.00;98276.03;4988288;28;20180;-60
2022/11/17 01:15:35;;;;;;;11.00;6.85;;;;;;;9.58;100.00;98278.31;4991585;28;20049;-60
2022/11/17 01:18:00;;;;;;;9.75;6.65;;;;;;;9.50;100.00;98259.63;4992493;28;20572;-60
2022/11/17 01:20:26;;;;;;;8.77;6.72;;;;;;;9.55;100.00;98269.81;4992872;28;20101;-60
2022/11/17 01:22:54;;;;;;;10.07;6.97;;;;;;;9.60;100.00;98281.69;4993065;28;20046;-62
2022/11/17 01:25:20;;;;;;;12.20;5.90;;;;;;;9.62;100.00;98273.72;4992676;28;20034;-61
2022/11/17 01:27:46;;;;;;;10.90;6.13;;;;;;;9.29;100.00;98220.88;4991551;28;20034;-62
2022/11/17 01:30:12;;;;;;;6.38;5.30;;;;;;;9.27;100.00;98200.00;4992488;28;20493;-60
2022/11/17 01:32:38;;;;;;;7.85;6.10;;;;;;;9.69;100.00;98263.63;4992632;28;20034;-60
2022/11/17 01:35:04;;;;;;;8.13;5.78;;;;;;;9.69;100.00;98263.63;4992456;28;20035;-60
2022/11/17 01:37:29;;;;;;;7.47;5.80;;;;;;;9.57;100.00;98253.00;4992423;28;20494;-61
2022/11/17 01:39:54;;;;;;;7.80;5.22;;;;;;;9.42;100.00;98226.97;4992389;28;20456;-61
2022/11/17 01:42:22;;;;;;;6.53;5.10;;;;;;;9.60;100.00;98250.16;4991311;28;20042;-60
2022/11/17 01:44:54;;;;;;;6.85;4.60;;;;;;;9.71;100.00;98261.72;4991053;28;20026;-60
2022/11/17 01:47:26;;;;;;;4.97;4.28;;;;;;;9.41;100.00;98210.38;4992340;28;20045;-60
2022/11/17 01:50:03;;;;;;;6.05;4.60;;;;;;;9.56;100.00;98224.22;4974797;28;20027;-60
2022/11/17 01:52:30;;;;;;;5.93;4.50;;;;;;;9.69;100.00;98237.34;4992008;28;20035;-60
2022/11/17 01:54:56;;;;;;;9.32;4.40;;;;;;;9.71;100.00;98227.56;4990958;28;20530;-60
2022/11/17 01:57:37;;;;;;;5.60;4.53;;;;;;;9.48;100.00;98182.75;4990762;28;20121;-60
2022/11/17 02:00:05;;;;;;;7.15;4.68;;;;;;;9.78;100.00;98228.84;4992355;28;20034;-60
2022/11/17 02:02:32;;;;;;;5.53;4.47;;;;;;;9.77;100.00;98209.59;4991046;28;20031;-59
2022/11/17 02:05:12;;;;;;;6.93;4.18;;;;;;;9.49;100.00;98162.56;4990861;28;20129;-60
2022/11/17 02:07:39;;;;;;;6.85;4.45;;;;;;;9.77;100.00;98199.09;4992138;28;20035;-61
2022/11/17 02:10:05;;;;;;;5.32;4.30;;;;;;;9.61;100.00;98178.31;4991578;28;20128;-60
2022/11/17 02:12:31;;;;;;;8.02;4.22;;;;;;;9.85;100.00;98211.69;4991519;28;20038;-62
2022/11/17 02:14:57;;;;;;;3.80;3.38;;;;;;;9.71;100.00;98185.56;4990483;28;20046;-59
2022/11/17 02:17:25;;;;;;;4.68;3.70;;;;;;;9.77;100.00;98180.72;4991766;28;20049;-59
2022/11/17 02:20:04;;;;;;;6.10;3.88;;;;;;;9.88;100.00;98200.94;4990330;28;20111;-59
2022/11/17 02:22:48;;;;;;;5.70;3.88;;;;;;;9.88;100.00;98208.84;4990444;28;20082;-59
2022/11/17 02:25:19;;;;;;;7.95;4.10;;;;;;;9.87;100.00;98215.88;4991868;28;20099;-60
2022/11/17 02:27:44;;;;;;;;;;;;;;;9.86;100.00;98203.69;4991310;28;20046;-59
2022/11/17 02:30:12;;;;;;;6.67;4.20;;;;;;;9.77;100.00;98190.38;4991737;28;19914;-59
2022/11/17 02:32:59;;;;;;;6.10;4.00;;;;;;;9.82;100.00;98202.22;4990442;28;20281;-59
2022/11/17 02:36:02;;;;;;;5.40;4.22;;;;;;;9.82;100.00;98201.38;4990548;28;20045;-59
2022/11/17 02:38:53;;;;;;;6.85;4.25;;;;;;;9.54;100.00;98152.59;4992118;28;20035;-59
2022/11/17 02:41:35;;;;;;;7.03;3.78;;;;;;;9.77;100.00;98187.75;4990341;28;20084;-58
2022/11/17 02:44:07;;;;;;;5.78;3.70;;;;;;;9.43;100.00;98124.47;4990560;28;20037;-59
2022/11/17 02:46:39;;;;;;;5.18;3.90;;;;;;;9.71;100.00;98173.25;4990111;28;20047;-57
2022/11/17 02:49:10;;;;;;;5.50;3.72;;;;;;;9.75;100.00;98185.22;4990520;28;20520;-59
2022/11/17 02:51:37;;;;;;;7.30;3.80;;;;;;;9.73;100.00;98181.88;4989713;28;20042;-58
2022/11/17 02:54:02;;;;;;;9.63;3.78;;;;;;;9.67;100.00;98179.66;4990259;28;20037;-61
2022/11/17 02:56:27;;;;;;;7.82;3.30;;;;;;;9.67;100.00;98173.56;4990402;28;20038;-59
2022/11/17 02:58:59;;;;;;;9.85;3.63;;;;;;;9.61;100.00;98162.56;4991326;28;20057;-59
2022/11/17 03:01:29;;;;;;;7.78;3.42;;;;;;;9.60;100.00;98165.31;4989742;28;20038;-58
2022/11/17 03:04:21;;;;;;;5.82;2.95;;;;;;;9.58;100.00;98154.06;4989934;28;20466;-60
2022/11/17 03:07:01;;;;;;;7.70;3.05;;;;;;;9.70;100.00;98154.97;4991270;28;20065;-59
2022/11/17 03:09:44;;;;;;;5.63;2.85;;;;;;;9.54;100.00;98113.22;4990179;28;20049;-58
2022/11/17 03:12:15;;;;;;;4.78;2.83;;;;;;;9.75;100.00;98151.06;4973809;28;20033;-58
2022/11/17 03:14:45;;;;;;;4.88;2.60;;;;;;;9.52;100.00;98102.81;4991208;28;20080;-58
2022/11/17 03:17:21;;;;;;;9.05;3.25;;;;;;;9.82;100.00;98133.94;4991304;28;20038;-60
2022/11/17 03:19:53;;;;;;;6.43;3.10;;;;;;;9.84;100.00;98126.75;4989970;28;20129;-61
2022/11/17 03:22:19;;;;;;;7.65;2.22;;;;;;;9.71;100.00;98099.72;4989291;28;20078;-58
2022/11/17 03:24:49;;;;;;;8.52;3.30;;;;;;;9.91;100.00;98124.53;4990907;28;20555;-57
2022/11/17 03:27:21;;;;;;;6.07;2.45;;;;;;;9.68;100.00;98076.28;4989581;28;20045;-58
2022/11/17 03:29:50;;;;;;;4.07;2.13;;;;;;;10.04;100.00;98120.91;4989665;28;20071;-58
2022/11/17 03:32:16;;;;;;;7.45;2.72;;;;;;;9.97;100.00;98110.97;4989251;28;20035;-58
2022/11/17 03:34:44;;;;;;;6.03;2.30;;;;;;;9.88;100.00;98073.06;4989273;28;20026;-57
2022/11/17 03:37:12;;;;;;;5.75;2.17;;;;;;;10.07;100.00;98104.06;4988865;28;20062;-57
2022/11/17 03:39:42;;;;;;;4.97;2.40;;;;;;;10.08;100.00;98108.38;4989471;28;20049;-58
2022/11/17 03:42:25;;;;;;;3.93;1.83;;;;;;;9.73;100.00;98028.66;4989340;28;20033;-59
2022/11/17 03:44:57;;;;;;;3.63;1.77;;;;;;;9.76;100.00;98028.44;4990566;28;20757;-58
2022/11/17 03:47:24;;;;;;;3.22;1.70;;;;;;;10.10;100.00;98082.81;4990443;28;20121;-59
2022/11/17 03:49:58;;;;;;;6.10;2.10;;;;;;;9.96;100.00;98060.19;4989095;28;20092;-59
2022/11/17 03:52:24;;;;;;;4.95;2.05;;;;;;;9.98;100.00;98066.16;4989132;28;20388;-59
2022/11/17 03:54:51;;;;;;;5.45;2.20;;;;;;;10.11;100.00;98082.72;4990623;28;20414;-59
2022/11/17 03:57:27;;;;;;;3.90;1.42;;;;;;;10.01;100.00;98062.50;4989504;28;20088;-59
2022/11/17 03:59:57;;;;;;;5.70;2.03;;;;;;;9.87;100.00;98020.59;4989335;28;20390;-57
2022/11/17 04:02:23;;;;;;;4.07;1.52;;;;;;;9.85;100.00;98023.38;4989404;28;20379;-56
2022/11/17 04:05:04;;;;;;;5.63;1.80;;;;;;;9.83;100.00;98024.44;4990432;28;20050;-58
2022/11/17 04:07:29;;;;;;;5.90;1.77;;;;;;;10.12;100.00;98084.41;4990321;28;20427;-59
2022/11/17 04:09:55;;;;;;;5.55;1.60;;;;;;;10.13;100.00;98077.34;4989058;28;20395;-59
2022/11/17 04:17:48;;;;;;;5.47;1.90;;;;;;;10.15;100.00;98076.31;4990092;28;20053;-59
2022/11/17 04:20:14;;;;;;;7.72;2.00;;;;;;;10.14;100.00;98090.41;4990068;28;20406;-59
2022/11/17 04:22:39;;;;;;;6.13;1.60;;;;;;;9.82;100.00;98031.47;5004766;28;20051;-59
2022/11/17 04:25:05;;;;;;;6.00;1.85;;;;;;;10.09;100.00;98079.38;4990170;28;20065;-60
2022/11/17 04:30:14;;;;;;;4.05;1.73;;;;;;;10.03;100.00;98065.84;4989945;28;20041;-60
2022/11/17 04:32:39;;;;;;;4.32;1.50;;;;;;;9.78;100.00;98016.88;4972494;28;20042;-60
2022/11/17 04:35:05;;;;;;;5.68;1.73;;;;;;;10.07;100.00;98052.34;4989708;28;20489;-60
2022/11/17 04:37:30;;;;;;;3.17;1.45;;;;;;;10.09;100.00;98047.00;4989993;28;20090;-59
2022/11/17 04:39:55;;;;;;;6.68;1.80;;;;;;;10.08;100.00;98053.19;4989878;28;20034;-59
2022/11/17 04:42:21;;;;;;;5.57;1.80;;;;;;;10.07;100.00;98039.19;4988635;28;20045;-59
2022/11/17 04:44:46;;;;;;;4.95;1.63;;;;;;;10.08;100.00;98035.63;4989760;28;20496;-59
2022/11/17 04:47:11;;;;;;;4.95;1.77;;;;;;;10.03;100.00;98021.16;4989749;28;20035;-60
2022/11/17 04:49:36;;;;;;;3.90;1.35;;;;;;;9.79;100.00;97966.03;4990123;28;20046;-60
2022/11/17 04:52:02;;;;;;;4.40;1.35;;;;;;;10.02;100.00;98001.06;4991772;28;20474;-60
2022/11/17 04:54:27;;;;;;;3.60;1.50;;;;;;;10.09;100.00;98016.28;4993279;28;20038;-60
2022/11/17 04:56:53;;;;;;;2.78;1.40;;;;;;;10.08;100.00;98000.63;4993105;28;20043;-59
2022/11/17 04:59:19;;;;;;;3.35;1.40;;;;;;;10.02;100.00;97998.44;4991826;28;20038;-59
2022/11/17 05:01:45;;;;;;;4.75;1.42;;;;;;;10.09;100.00;98012.81;4991593;28;20107;-59
2022/11/17 05:04:12;;;;;;;5.78;1.60;;;;;;;10.03;100.00;97990.47;4992897;28;20135;-59
2022/11/17 05:06:40;;;;;;;3.70;1.30;;;;;;;10.02;100.00;97999.28;4992018;28;20045;-60
2022/11/17 05:09:11;;;;;;;7.47;1.65;;;;;;;9.81;100.00;97965.88;4992976;28;20125;-60
2022/11/17 05:14:21;;;;;;;2.72;1.42;;;;;;;10.09;100.00;98026.81;4992755;28;19920;-60
2022/11/17 05:17:05;;;;;;;3.35;1.70;;;;;;;9.81;100.00;97984.28;4992520;28;20042;-60
2022/11/17 05:19:48;;;;;;;4.95;1.50;;;;;;;10.07;100.00;98028.69;4992764;28;20031;-60
2022/11/17 05:25:05;;;;;;;2.13;1.60;;;;;;;10.03;100.00;98019.38;4992975;28;20532;-60
2022/11/17 05:27:32;;;;;;;5.63;1.80;;;;;;;10.06;100.00;98011.25;4975304;28;20069;-60
2022/11/17 05:29:58;;;;;;;7.22;1.90;;;;;;;9.74;100.00;97960.28;4991172;28;20402;-59
2022/11/17 05:32:23;;;;;;;3.22;1.92;;;;;;;10.11;100.00;98024.88;4992409;28;20121;-60
2022/11/17 05:34:48;;;;;;;5.38;2.30;;;;;;;10.02;100.00;98022.94;4992409;28;20117;-60
2022/11/17 05:37:14;;;;;;;2.75;1.77;;;;;;;9.86;100.00;97983.00;4992241;28;20121;-59
2022/11/17 05:39:39;;;;;;;4.55;2.40;;;;;;;9.92;100.00;97993.06;4992161;28;20121;-59
2022/11/17 05:42:04;;;;;;;4.05;2.20;;;;;;;10.13;100.00;98024.78;4992529;28;20057;-59
2022/11/17 05:44:30;;;;;;;6.93;2.17;;;;;;;10.10;100.00;98028.47;4992682;28;20042;-59
2022/11/17 05:46:55;;;;;;;7.63;2.38;;;;;;;10.01;100.00;98013.38;4991164;28;20096;-60
2022/11/17 05:49:20;;;;;;;4.95;2.47;;;;;;;10.11;100.00;98024.03;4992397;28;20141;-59
2022/11/17 05:51:46;;;;;;;9.57;2.25;;;;;;;9.83;100.00;97977.16;4992176;28;20042;-58
2022/11/17 05:54:11;;;;;;;4.65;2.05;;;;;;;10.10;100.00;98017.94;4991081;28;20034;-59
2022/11/17 05:56:51;;;;;;;7.43;2.38;;;;;;;10.18;100.00;98019.22;4992111;28;20030;-59
2022/11/17 05:59:27;;;;;;;5.20;2.53;;;;;;;10.18;100.00;98024.47;4992408;28;20034;-59
2022/11/17 06:02:07;;;;;;;3.95;2.50;;;;;;;10.19;100.00;98013.81;4992018;28;20045;-59
2022/11/17 06:04:33;;;;;;;3.03;2.55;;;;;;;10.21;100.00;98014.56;4991647;28;20026;-59
2022/11/17 06:06:59;;;;;;;5.95;2.35;;;;;;;10.21;100.00;98027.72;4991316;28;20064;-58
2022/11/17 06:09:31;;;;;;;6.90;2.70;;;;;;;9.96;100.00;97981.34;4990193;28;20529;-58
2022/11/17 06:11:57;;;;;;;9.07;3.17;;;;;;;10.20;100.00;98035.69;4990577;28;20393;-59
2022/11/17 06:14:22;;;;;;;10.43;2.95;;;;;;;10.20;100.00;98020.75;4991835;28;20026;-59
2022/11/17 06:16:50;;;;;;;6.28;2.67;;;;;;;10.20;100.00;98023.38;4992044;28;20113;-60
2022/11/17 06:19:21;;;;;;;6.78;3.60;;;;;;;10.16;100.00;98021.94;5006484;28;20062;-60
2022/11/17 06:21:47;;;;;;;8.88;4.07;;;;;;;10.11;100.00;98017.00;4989683;28;20061;-60
2022/11/17 06:24:13;;;;;;;9.48;3.95;;;;;;;10.10;100.00;98015.31;4989921;28;20089;-60
2022/11/17 06:26:39;;;;;;;11.02;3.35;;;;;;;10.10;100.00;98027.63;4991051;28;20066;-60
2022/11/17 06:29:05;;;;;;;9.90;3.45;;;;;;;10.14;100.00;98029.09;4989561;28;20040;-59
2022/11/17 06:31:31;;;;;;;7.70;3.75;;;;;;;10.13;100.00;98030.03;4991065;28;20030;-59
2022/11/17 06:33:59;;;;;;;8.57;3.90;;;;;;;10.13;100.00;98037.94;4991327;28;20027;-59
2022/11/17 06:36:24;;;;;;;7.18;3.63;;;;;;;9.81;100.00;97982.50;4991450;28;20038;-59
2022/11/17 06:38:49;;;;;;;8.60;3.58;;;;;;;10.08;100.00;98033.00;4991675;28;20099;-59
2022/11/17 06:41:15;;;;;;;7.53;3.13;;;;;;;10.04;100.00;98039.44;4991523;28;20042;-60
2022/11/17 06:43:40;;;;;;;5.80;3.08;;;;;;;9.96;100.00;98026.03;4991385;28;20042;-59
2022/11/17 06:46:06;;;;;;;9.13;3.40;;;;;;;9.63;100.00;97984.69;4991233;28;20057;-59
2022/11/17 06:48:34;;;;;;;8.35;3.08;;;;;;;9.94;100.00;98051.59;4991394;28;20399;-59
2022/11/17 06:51:03;;;;;;;6.35;2.53;;;;;;;9.88;100.00;98019.66;4991545;28;20053;-59
2022/11/17 06:53:29;;;;;;;6.65;2.50;;;;;;;9.64;100.00;97993.41;4991103;28;20033;-60
2022/11/17 06:58:29;;;;;;;7.68;2.53;;;;;;;9.93;100.00;98039.38;4990996;28;20068;-60
2022/11/17 07:01:00;;;;;;;11.43;2.70;;;;;;;9.84;100.00;98028.72;4991288;28;20585;-59
2022/11/17 07:03:25;;;;;;;9.75;2.90;;;;;;;9.93;100.00;98049.91;4991342;28;20031;-59
2022/11/17 07:05:51;;;;;;;5.47;2.58;;;;;;;9.92;100.00;98055.28;4991466;28;20031;-60
2022/11/17 07:08:17;;;;;;;8.57;2.30;;;;;;;9.56;100.00;97996.63;4989410;28;20073;-60
2022/11/17 07:10:43;;;;;;;11.48;2.97;;;;;;;9.92;100.00;98042.16;4989883;28;20402;-61
2022/11/17 07:13:08;;;;;;;6.30;2.83;;;;;;;9.85;100.00;98051.41;4990564;28;20053;-61
2022/11/17 07:15:34;;;;;;;4.50;2.70;;;;;;;9.85;100.00;98047.00;4992289;28;20455;-61
2022/11/17 07:17:59;;;;;;;4.53;2.80;;;;;;;9.80;100.00;98057.03;4998532;28;20034;-62
2022/11/17 07:20:24;;;;;;;7.55;2.47;;;;;;;9.79;100.00;98057.97;5004548;28;20042;-61
2022/11/17 07:22:50;;;;;;;4.13;2.50;;;;;;;9.60;100.00;98026.94;5010313;28;20451;-60
2022/11/17 07:25:15;;;;;;;5.88;2.97;;;;;;;9.71;100.00;98052.44;4994265;28;20214;-62
2022/11/17 07:27:40;;;;;;;5.25;2.88;;;;;;;9.75;100.00;98064.38;4991582;28;20038;-59
2022/11/17 07:30:06;;;;;;;11.10;3.55;;;;;;;9.41;100.00;98004.75;4990428;28;20037;-61
2022/11/17 07:32:32;;;;;;;4.88;2.95;;;;;;;9.72;100.00;98072.47;4992805;28;20045;-62
2022/11/17 07:35:00;;;;;;;5.95;2.67;;;;;;;9.73;100.00;98082.03;4995979;28;20393;-62
2022/11/17 07:37:25;;;;;;;7.88;3.25;;;;;;;9.74;100.00;98086.34;5010375;28;20124;-60
2022/11/17 07:39:51;;;;;;;6.72;3.70;;;;;;;9.75;100.00;98082.75;5004619;28;20122;-60
2022/11/17 07:42:16;;;;;;;4.65;2.78;;;;;;;9.76;100.00;98073.09;4990511;28;20394;-61
2022/11/17 07:44:41;;;;;;;4.60;3.50;;;;;;;9.73;100.00;98081.19;4994019;28;20084;-62
2022/11/17 07:47:07;;;;;;;5.80;3.33;;;;;;;9.77;100.00;98087.94;4990361;28;20042;-60
2022/11/17 07:49:32;;;;;;;7.85;3.00;;;;;;;9.43;100.00;98022.06;4990746;28;20037;-61
2022/11/17 07:51:57;;;;;;;4.22;2.65;;;;;;;9.43;100.00;98029.94;4990605;28;20080;-60
2022/11/17 07:54:23;;;;;;;5.20;3.33;;;;;;;9.76;100.00;98088.84;4991260;28;20034;-60
2022/11/17 07:56:48;;;;;;;5.70;3.15;;;;;;;9.76;100.00;98083.59;4990356;28;20126;-60
2022/11/17 07:59:13;;;;;;;6.28;3.15;;;;;;;9.47;100.00;98027.94;4990457;28;20475;-63
2022/11/17 08:01:39;;;;;;;8.50;2.90;;;;;;;9.75;100.00;98085.38;4990543;28;20045;-60
2022/11/17 08:04:04;;;;;;;6.07;3.10;;;;;;;9.77;100.00;98082.66;5009594;28;20056;-60
2022/11/17 08:06:29;;;;;;;5.10;2.60;;;;;;;9.43;100.00;98027.31;5008775;28;20074;-60
2022/11/17 08:08:55;;;;;;;5.50;2.90;;;;;;;9.81;100.00;98084.94;5009847;28;20045;-60
2022/11/17 08:11:20;;;;;;;5.80;3.50;;;;;;;9.57;100.00;98050.78;5009464;28;20033;-60
2022/11/17 08:13:46;;;;;;;8.13;3.10;;;;;;;9.49;100.00;98040.00;5009422;28;20040;-60
2022/11/17 08:16:12;;;;;;;5.03;2.53;;;;;;;9.81;100.00;98102.50;5009845;28;20469;-62
2022/11/17 08:18:38;;;;;;;6.43;2.30;;;;;;;9.82;100.00;98094.50;5008457;28;20311;-60
2022/11/17 08:21:05;;;;;;;8.20;2.45;;;;;;;9.80;100.00;98085.91;5008177;28;20432;-59
2022/11/17 08:23:31;;;;;;;5.18;2.20;;;;;;;9.76;100.00;98094.97;5009294;28;20049;-59
2022/11/17 08:25:56;;;;;;;8.85;2.20;;;;;;;9.80;100.00;98090.31;5007699;28;20033;-62
2022/11/17 08:28:22;;;;;;;6.65;1.90;;;;;;;9.44;100.00;98036.88;5009397;28;20045;-63
2022/11/17 08:30:47;;;;;;;6.20;1.90;;;;;;;9.73;100.00;98096.97;5009893;28;20042;-64
2022/11/17 08:33:12;;;;;;;7.30;1.90;;;;;;;9.78;100.00;98114.06;5009522;28;20034;-64
2022/11/17 08:35:38;;;;;;;8.20;2.40;;;;;;;9.44;100.00;98065.75;5009690;28;20045;-64
2022/11/17 08:38:04;;;;;;;4.03;1.63;;;;;;;9.47;100.00;98069.94;5008146;28;20040;-64
2022/11/17 08:40:29;;;;;;;7.13;2.00;;;;;;;9.74;100.00;98115.25;5009162;28;20417;-64
2022/11/17 08:42:54;;;;;;;4.93;1.92;;;;;;;9.57;100.00;98098.06;5008036;28;20343;-66
2022/11/17 08:45:20;;;;;;;6.00;1.88;;;;;;;9.37;100.00;98047.94;5007530;28;20450;-65
2022/11/17 08:47:45;;;;;;;4.65;1.50;;;;;;;9.36;100.00;98064.63;5008584;28;20046;-61
2022/11/17 08:50:10;;;;;;;6.38;1.70;;;;;;;9.41;100.00;98068.59;5009265;28;20038;-64
2022/11/17 08:52:36;;;;;;;3.97;1.55;;;;;;;9.73;100.00;98150.34;5008049;28;20036;-63
2022/11/17 08:55:04;;;;;;;8.05;1.60;;;;;;;9.66;100.00;98116.75;5008962;28;20416;-65
2022/11/17 08:57:30;;;;;;;5.40;1.50;;;;;;;9.77;100.00;98145.72;5008906;28;20021;-63
2022/11/17 08:59:56;;;;;;;5.05;1.58;;;;;;;9.74;100.00;98130.16;5007969;28;20446;-62
2022/11/17 09:02:21;;;;;;;6.15;1.52;;;;;;;9.78;100.00;98144.78;5007839;28;20084;-63
2022/11/17 09:04:46;;;;;;;4.40;1.65;;;;;;;9.79;100.00;98147.28;5007510;28;20504;-67
2022/11/17 09:07:12;;;;;;;6.03;1.73;;;;;;;9.51;100.00;98106.41;5009011;28;20401;-64
2022/11/17 09:09:37;;;;;;;6.93;1.10;;;;;;;9.54;100.00;98110.59;5008710;28;20161;-61
2022/11/17 09:12:03;;;;;;;3.00;1.30;;;;;;;9.78;100.00;98148.22;5008343;28;20041;-62
2022/11/17 09:14:28;;;;;;;3.97;1.33;;;;;;;9.81;100.00;98152.41;5008053;28;20026;-65
2022/11/17 09:16:53;;;;;;;4.78;1.65;;;;;;;9.88;100.00;98166.78;5008272;28;20423;-64
2022/11/17 09:19:19;;;;;;;5.25;1.08;;;;;;;9.84;100.00;98154.81;5008607;28;20106;-64
2022/11/17 09:21:44;;;;;;;4.20;1.50;;;;;;;9.82;100.00;98165.44;5008663;28;20053;-65
2022/11/17 09:24:09;;;;;;;3.22;1.20;;;;;;;9.80;100.00;98169.97;5008540;28;20054;-65
2022/11/17 09:26:39;;;;;;;4.47;1.80;;;;;;;9.70;100.00;98165.47;5008723;28;20030;-63
2022/11/17 09:29:05;;;;;;;6.13;1.10;;;;;;;9.39;100.00;98114.31;5007456;28;20049;-65
2022/11/17 09:31:31;;;;;;;4.20;1.35;;;;;;;9.39;100.00;98124.81;5008691;28;20030;-64
2022/11/17 09:33:56;;;;;;;6.35;2.03;;;;;;;9.72;100.00;98180.16;5008485;28;20049;-63
2022/11/17 09:36:21;;;;;;;3.08;1.27;;;;;;;9.69;100.00;98177.75;5010166;28;20045;-65
2022/11/17 09:38:47;;;;;;;3.40;1.45;;;;;;;9.65;100.00;98196.50;5011926;28;20041;-65
2022/11/17 09:41:15;;;;;;;5.88;1.48;;;;;;;9.68;100.00;98218.13;5010513;28;20041;-63
2022/11/17 09:43:49;;;;;;;5.05;1.50;;;;;;;9.34;100.00;98140.03;5010605;28;20068;-64
2022/11/17 09:46:24;;;;;;;5.75;1.70;;;;;;;9.29;100.00;98150.00;5010766;28;20038;-64
2022/11/17 09:49:01;;;;;;;5.70;1.55;;;;;;;9.24;100.00;98147.72;5010489;28;20037;-65
2022/11/17 09:51:28;;;;;;;7.78;1.92;;;;;;;9.61;100.00;98216.88;5010157;28;20045;-65
2022/11/17 09:54:12;;;;;;;4.32;1.50;;;;;;;9.60;100.00;98213.38;5010304;28;20125;-65
2022/11/17 09:56:39;;;;;;;7.50;2.20;;;;;;;9.54;100.00;98203.31;4994037;28;20030;-65
2022/11/17 09:59:05;;;;;;;6.10;2.08;;;;;;;9.56;100.00;98226.84;5011717;28;20117;-65
2022/11/17 10:01:31;;;;;;;5.50;1.73;;;;;;;9.57;100.00;98215.41;5011617;28;20042;-66
2022/11/17 10:03:58;;;;;;;7.47;1.65;;;;;;;9.57;100.00;98229.38;5011590;28;20045;-67
2022/11/17 10:06:30;;;;;;;7.65;1.67;;;;;;;9.54;100.00;98224.31;5009991;28;20041;-66
2022/11/17 10:09:15;;;;;;;6.25;1.90;;;;;;;9.60;100.00;98237.03;4994184;28;20091;-64
2022/11/17 10:11:42;;;;;;;9.75;2.28;;;;;;;9.27;100.00;98178.16;5011176;28;20470;-65
2022/11/17 10:14:12;;;;;;;6.03;1.83;;;;;;;9.61;100.00;98236.09;5011612;28;20038;-64
2022/11/17 10:16:41;;;;;;;6.63;1.83;;;;;;;9.63;100.00;98248.28;5011698;28;20081;-66
2022/11/17 10:19:23;;;;;;;7.78;2.00;;;;;;;9.55;100.00;98226.00;5011437;28;20057;-65
2022/11/17 10:21:52;;;;;;;6.40;2.00;;;;;;;9.59;100.00;98232.75;5006451;28;20436;-64
2022/11/17 10:24:35;;;;;;;7.72;1.60;;;;;;;9.70;100.00;98257.41;4989925;28;20053;-65
2022/11/17 10:27:03;;;;;;;6.82;2.17;;;;;;;9.68;100.00;98248.81;4990643;28;20062;-64
2022/11/17 10:29:28;;;;;;;8.88;2.05;;;;;;;9.68;100.00;98254.06;5011081;28;20034;-64
2022/11/17 10:31:53;;;;;;;8.73;2.25;;;;;;;9.69;100.00;98256.56;5009793;28;20040;-61
2022/11/17 10:34:30;;;;;;;9.02;2.47;;;;;;;9.75;100.00;98264.00;5010943;28;20029;-64
2022/11/17 10:37:03;;;;;;;8.75;2.50;;;;;;;9.72;100.00;98256.34;5026176;28;20127;-66
2022/11/17 10:39:34;;;;;;;8.90;2.45;;;;;;;9.67;100.00;98234.81;5007697;28;20022;-63
2022/11/17 10:42:01;;;;;;;6.55;2.10;;;;;;;9.55;100.00;98226.00;4989778;28;20041;-67
2022/11/17 10:44:29;;;;;;;8.35;2.25;;;;;;;9.81;100.00;98276.72;4990115;28;20049;-63
2022/11/17 10:46:59;;;;;;;10.10;2.50;;;;;;;9.79;100.00;98254.16;4989466;28;20046;-64
2022/11/17 10:49:27;;;;;;;5.15;1.88;;;;;;;9.50;100.00;98219.41;4973503;28;20088;-64
2022/11/17 10:52:15;;;;;;;6.20;2.35;;;;;;;9.77;100.00;98274.44;4989762;28;20070;-64
2022/11/17 10:54:41;;;;;;;4.28;1.90;;;;;;;9.63;100.00;98251.75;5006284;28;20050;-65
2022/11/17 10:57:21;;;;;;;4.88;2.05;;;;;;;9.44;100.00;98231.19;4990029;28;20107;-64
2022/11/17 10:59:51;;;;;;;4.72;1.92;;;;;;;9.72;100.00;98266.84;4990919;28;20030;-64
2022/11/17 11:02:28;;;;;;;12.20;2.25;;;;;;;9.71;100.00;98282.75;4990908;28;20034;-66
2022/11/17 11:05:13;;;;;;;5.57;2.28;;;;;;;9.69;100.00;98292.53;4991034;28;20037;-64
2022/11/17 11:07:38;;;;;;;7.00;1.98;;;;;;;9.38;100.00;98243.88;4989627;28;20035;-64
2022/11/17 11:10:25;;;;;;;5.82;1.65;;;;;;;9.33;100.00;98243.34;4990918;28;20041;-61
2022/11/17 11:12:58;;;;;;;5.38;1.25;;;;;;;9.69;100.00;98316.16;4989647;28;20037;-63
2022/11/17 11:15:24;;;;;;;6.00;1.83;;;;;;;9.66;100.00;98314.56;5003727;28;20034;-61
2022/11/17 11:17:50;;;;;;;7.43;1.73;;;;;;;9.71;100.00;98320.34;5009957;28;20054;-60
2022/11/17 11:20:18;;;;;;;6.60;1.60;;;;;;;9.43;100.00;98262.78;5008565;28;20018;-60
2022/11/17 11:22:52;;;;;;;2.95;1.13;;;;;;;9.82;100.00;98327.50;4997702;28;20034;-61
2022/11/17 11:25:30;;;;;;;2.78;1.25;;;;;;;9.86;100.00;98335.06;5010267;28;20117;-61
2022/11/17 11:28:10;;;;;;;4.07;1.23;;;;;;;9.89;100.00;98326.97;5009929;28;20042;-61
2022/11/17 11:31:08;;;;;;;5.40;1.60;;;;;;;9.65;100.00;98278.75;5010106;28;20446;-61
2022/11/17 11:33:37;;;;;;;4.20;1.15;;;;;;;9.87;100.00;98333.25;5014893;28;20044;-60
2022/11/17 11:36:14;;;;;;;4.38;1.35;;;;;;;9.91;100.00;98337.38;4999912;28;20166;-60
2022/11/17 11:38:54;;;;;;;4.95;1.45;;;;;;;9.96;100.00;98335.25;5010050;28;20037;-60
2022/11/17 11:41:25;;;;;;;1.23;1.07;;;;;;;10.02;100.00;98346.19;5007150;28;20041;-61
2022/11/17 11:43:57;;;;;;;;;;;;;;;10.03;100.00;98347.88;4991061;28;20282;-61
2022/11/17 11:46:51;;;;;;;3.80;1.80;;;;;;;10.04;100.00;98354.81;4990072;28;20422;-62
2022/11/17 11:49:27;;;;;;;5.53;1.35;;;;;;;9.86;100.00;98314.06;4983607;28;20080;-62
2022/11/17 11:51:52;;;;;;;11.98;2.15;;;;;;;9.98;100.00;98339.44;4989920;28;20049;-61
2022/11/17 11:54:41;;;;;;;6.70;1.80;;;;;;;10.10;100.00;98359.63;4990027;28;20371;-61
2022/11/17 11:57:11;;;;;;;4.65;1.52;;;;;;;10.11;100.00;98358.69;4989079;28;20042;-60
2022/11/17 11:59:47;;;;;;;4.55;1.70;;;;;;;9.89;100.00;98300.69;4988811;28;20037;-60
2022/11/17 12:02:12;;;;;;;6.53;1.50;;;;;;;10.17;100.00;98344.31;4989062;28;20034;-60
2022/11/17 12:04:59;;;;;;;5.57;1.50;;;;;;;10.20;100.00;98357.25;4989774;28;20114;-60